createdAt,value
2023-03-17T00:00:59.389Z,99120.94
2023-03-17T00:06:01.936Z,99124.81
2023-03-17T00:11:03.828Z,99124.56
2023-03-17T00:16:16.999Z,99127.06
2023-03-17T00:21:28.048Z,99129.28
2023-03-17T00:26:29.698Z,99135.38
2023-03-17T00:31:31.773Z,99134.97
2023-03-17T00:36:34.468Z,99133.19
2023-03-17T00:41:36.054Z,99123.63
2023-03-17T00:46:39.551Z,99120.09
2023-03-17T00:51:41.377Z,99117.41
2023-03-17T00:56:44.344Z,99117.59
2023-03-17T01:01:46.507Z,99106.63
2023-03-17T01:06:49.710Z,99103.09
2023-03-17T01:11:51.595Z,99086.47
2023-03-17T01:16:53.322Z,99091.88
2023-03-17T01:21:54.903Z,99079.94
2023-03-17T01:26:56.483Z,99072.56
2023-03-17T01:31:58.161Z,99069.06
2023-03-17T01:37:00.158Z,99063.03
2023-03-17T01:42:02.031Z,99060.66
2023-03-17T01:47:03.728Z,99058.56
2023-03-17T01:52:21.716Z,99060.00
2023-03-17T01:57:28.634Z,99048.44
2023-03-17T02:02:33.019Z,99060.94
2023-03-17T02:07:35.230Z,99057.94
2023-03-17T02:12:37.236Z,99045.19
2023-03-17T02:17:39.298Z,99051.97
2023-03-17T02:22:40.962Z,99039.84
2023-03-17T02:27:46.336Z,99030.09
2023-03-17T02:32:47.947Z,99018.31
2023-03-17T02:37:49.561Z,99013.81
2023-03-17T02:42:51.422Z,99015.56
2023-03-17T02:47:53.947Z,99017.63
2023-03-17T02:52:56.127Z,99024.66
2023-03-17T02:57:58.959Z,99030.38
2023-03-17T03:03:00.828Z,99035.81
2023-03-17T03:08:03.236Z,99037.69
2023-03-17T03:13:05.600Z,99032.63
2023-03-17T03:18:07.280Z,99037.94
2023-03-17T03:23:08.926Z,99041.78
2023-03-17T03:28:10.862Z,99040.81
2023-03-17T03:33:14.090Z,99046.38
2023-03-17T03:38:15.850Z,99038.81
2023-03-17T03:43:23.396Z,99030.53
2023-03-17T03:48:25.699Z,99047.28
2023-03-17T03:53:28.691Z,99041.16
2023-03-17T03:58:30.321Z,99038.44
2023-03-17T04:03:33.087Z,99043.16
2023-03-17T04:08:34.786Z,99040.41
2023-03-17T04:13:36.552Z,99021.03
2023-03-17T04:18:38.356Z,99019.06
2023-03-17T04:23:39.988Z,99011.59
2023-03-17T04:28:41.586Z,99010.53
2023-03-17T04:33:43.253Z,99007.91
2023-03-17T04:38:45.049Z,99015.41
2023-03-17T04:43:46.831Z,99018.06
2023-03-17T04:48:48.489Z,99018.91
2023-03-17T04:53:50.190Z,99029.16
2023-03-17T04:58:51.772Z,99031.06
2023-03-17T05:03:53.554Z,99025.97
2023-03-17T05:08:55.300Z,99030.31
2023-03-17T05:13:57.164Z,99038.16
2023-03-17T05:18:58.818Z,99033.75
2023-03-17T05:24:00.445Z,99033.91
2023-03-17T05:29:02.288Z,99037.44
2023-03-17T05:34:04.440Z,99049.75
2023-03-17T05:39:06.192Z,99056.97
2023-03-17T05:44:08.627Z,99066.41
2023-03-17T05:49:10.262Z,99063.72
2023-03-17T05:54:12.272Z,99065.16
2023-03-17T05:59:18.465Z,99071.06
2023-03-17T06:04:20.088Z,99084.50
2023-03-17T06:09:21.670Z,99086.25
2023-03-17T06:14:24.135Z,99078.94
2023-03-17T06:19:26.962Z,99084.53
2023-03-17T06:24:28.690Z,99090.75
2023-03-17T06:29:30.757Z,99074.16
2023-03-17T06:34:32.689Z,99078.41
2023-03-17T06:39:34.478Z,99090.97
2023-03-17T06:44:36.480Z,99083.69
2023-03-17T06:49:38.144Z,99078.09
2023-03-17T06:54:40.024Z,99077.25
2023-03-17T06:59:41.823Z,99077.22
2023-03-17T07:04:43.505Z,99074.47
2023-03-17T07:09:45.304Z,99069.75
2023-03-17T07:14:46.927Z,99070.47
2023-03-17T07:19:48.543Z,99068.28
2023-03-17T07:24:50.366Z,99077.00
2023-03-17T07:29:52.826Z,99075.50
2023-03-17T07:34:54.776Z,99075.56
2023-03-17T07:39:56.931Z,99071.72
2023-03-17T07:44:58.578Z,99062.75
2023-03-17T07:50:00.206Z,99066.88
2023-03-17T07:55:02.629Z,99063.81
2023-03-17T08:00:09.309Z,99061.47
2023-03-17T08:05:11.421Z,99065.59
2023-03-17T08:10:13.664Z,99060.88
2023-03-17T08:15:15.255Z,99052.31
2023-03-17T08:20:17.124Z,99051.19
2023-03-17T08:25:18.815Z,99050.84
2023-03-17T08:30:20.919Z,99043.69
2023-03-17T08:35:22.590Z,99036.44
2023-03-17T08:40:24.440Z,99033.00
2023-03-17T08:45:26.702Z,99035.47
2023-03-17T08:50:28.425Z,99037.69
2023-03-17T08:55:30.181Z,99034.69
2023-03-17T09:00:32.115Z,99023.38
2023-03-17T09:05:36.874Z,99022.63
2023-03-17T09:10:39.882Z,99016.78
2023-03-17T09:15:41.540Z,99005.94
2023-03-17T09:20:43.373Z,99007.81
2023-03-17T09:25:45.339Z,99005.34
2023-03-17T09:30:47.156Z,99000.41
2023-03-17T09:35:52.238Z,99004.66
2023-03-17T09:41:06.043Z,99011.81
2023-03-17T09:46:30.813Z,98997.38
2023-03-17T09:51:33.842Z,98993.53
2023-03-17T09:56:40.641Z,98985.50
2023-03-17T10:01:43.429Z,98973.34
2023-03-17T10:06:50.726Z,98962.03
2023-03-17T10:12:29.410Z,98956.88
2023-03-17T10:17:36.785Z,98956.59
2023-03-17T10:22:59.401Z,98958.03
2023-03-17T10:28:22.024Z,98942.72
2023-03-17T10:33:23.938Z,98934.47
2023-03-17T10:38:26.809Z,98923.16
2023-03-17T10:43:30.927Z,98911.44
2023-03-17T10:48:38.043Z,98911.69
2023-03-17T10:53:43.897Z,98903.56
2023-03-17T10:58:49.133Z,98893.22
2023-03-17T11:03:51.010Z,98894.25
2023-03-17T11:08:55.258Z,98882.69
2023-03-17T11:14:11.765Z,98878.09
2023-03-17T11:19:16.831Z,98870.72
2023-03-17T11:24:52.640Z,98869.34
2023-03-17T11:30:17.597Z,98862.00
2023-03-17T11:35:44.181Z,98844.06
2023-03-17T11:41:04.953Z,98832.09
2023-03-17T11:46:11.764Z,98814.84
2023-03-17T11:51:47.012Z,98805.53
2023-03-17T11:56:54.230Z,98798.28
2023-03-17T12:02:19.193Z,98784.41
2023-03-17T12:07:25.831Z,98781.00
2023-03-17T12:12:33.451Z,98768.09
2023-03-17T12:17:44.835Z,98764.38
2023-03-17T12:23:01.976Z,98749.19
2023-03-17T12:28:16.587Z,98741.72
2023-03-17T12:33:56.962Z,98737.50
2023-03-17T12:39:02.339Z,98720.09
2023-03-17T12:44:29.516Z,98721.00
2023-03-17T12:49:52.597Z,98715.91
2023-03-17T12:54:55.184Z,98708.72
2023-03-17T13:00:19.424Z,98706.13
2023-03-17T13:05:32.673Z,98698.00
2023-03-17T13:10:43.394Z,98695.22
2023-03-17T13:15:52.270Z,98686.72
2023-03-17T13:20:57.536Z,98677.84
2023-03-17T13:25:59.942Z,98680.53
2023-03-17T13:31:14.109Z,98668.84
2023-03-17T13:36:37.340Z,98668.75
2023-03-17T13:42:17.695Z,98663.25
2023-03-17T13:47:22.840Z,98651.09
2023-03-17T13:52:32.302Z,98655.16
2023-03-17T13:57:39.149Z,98650.66
2023-03-17T14:02:42.269Z,98651.50
2023-03-17T14:07:54.516Z,98634.84
2023-03-17T14:13:18.215Z,98639.50
2023-03-17T14:18:30.765Z,98634.63
2023-03-17T14:23:34.726Z,98621.81
2023-03-17T14:28:37.563Z,98616.38
2023-03-17T14:33:41.441Z,98603.25
2023-03-17T14:38:53.232Z,98601.31
2023-03-17T14:43:59.950Z,98599.91
2023-03-17T14:49:19.491Z,98590.00
2023-03-17T14:54:26.660Z,98595.47
2023-03-17T14:59:36.558Z,98585.56
2023-03-17T15:05:12.935Z,98577.56
2023-03-17T15:10:41.797Z,98570.19
2023-03-17T15:15:47.135Z,98569.59
2023-03-17T15:20:49.356Z,98565.84
2023-03-17T15:25:56.427Z,98565.16
2023-03-17T15:31:12.061Z,98555.56
2023-03-17T15:36:31.327Z,98555.56
2023-03-17T15:41:33.778Z,98551.97
2023-03-17T15:46:35.857Z,98538.47
2023-03-17T15:51:37.620Z,98545.09
2023-03-17T15:56:39.781Z,98542.47
2023-03-17T16:01:42.099Z,98538.16
2023-03-17T16:06:43.794Z,98540.66
2023-03-17T16:11:45.632Z,98537.72
2023-03-17T16:16:47.309Z,98535.91
2023-03-17T16:21:49.508Z,98528.50
2023-03-17T16:26:51.330Z,98535.78
2023-03-17T16:31:52.956Z,98529.88
2023-03-17T16:36:56.455Z,98538.84
2023-03-17T16:41:59.648Z,98535.16
2023-03-17T16:47:01.627Z,98534.88
2023-03-17T16:52:03.854Z,98530.19
2023-03-17T16:57:07.813Z,98521.97
2023-03-17T17:02:16.271Z,98533.84
2023-03-17T17:07:18.030Z,98530.72
2023-03-17T17:12:20.140Z,98536.72
2023-03-17T17:17:22.190Z,98530.97
2023-03-17T17:22:24.606Z,98530.28
2023-03-17T17:27:26.490Z,98526.97
2023-03-17T17:32:29.442Z,98534.63
2023-03-17T17:37:34.500Z,98532.50
2023-03-17T17:42:36.631Z,98530.03
2023-03-17T17:47:39.077Z,98530.03
2023-03-17T17:52:41.603Z,98541.00
2023-03-17T17:57:44.033Z,98536.75
2023-03-17T18:02:46.558Z,98524.25
2023-03-17T18:07:49.319Z,98535.06
2023-03-17T18:12:51.844Z,98533.75
2023-03-17T18:17:56.690Z,98537.94
2023-03-17T18:22:59.246Z,98532.31
2023-03-17T18:28:02.087Z,98535.44
2023-03-17T18:33:11.407Z,98534.97
2023-03-17T18:38:14.383Z,98533.97
2023-03-17T18:43:17.708Z,98537.75
2023-03-17T18:48:23.499Z,98535.25
2023-03-17T18:53:28.337Z,98535.53
2023-03-17T18:58:35.604Z,98526.94
2023-03-17T19:03:38.347Z,98531.03
2023-03-17T19:08:41.260Z,98536.69
2023-03-17T19:13:45.376Z,98533.16
2023-03-17T19:18:48.802Z,98534.75
2023-03-17T19:23:52.632Z,98529.81
2023-03-17T19:29:00.742Z,98530.91
2023-03-17T19:34:05.713Z,98533.91
2023-03-17T19:39:09.267Z,98539.03
2023-03-17T19:44:11.734Z,98534.13
2023-03-17T19:49:16.552Z,98536.66
2023-03-17T19:54:23.642Z,98533.31
2023-03-17T19:59:28.476Z,98529.94
2023-03-17T20:04:31.721Z,98529.31
2023-03-17T20:09:38.246Z,98519.88
2023-03-17T20:14:41.266Z,98519.16
2023-03-17T20:19:44.405Z,98528.25
2023-03-17T20:24:47.221Z,98518.91
2023-03-17T20:29:49.710Z,98515.22
2023-03-17T20:34:51.909Z,98518.53
2023-03-17T20:39:55.735Z,98516.56
2023-03-17T20:44:58.028Z,98513.91
2023-03-17T20:50:01.086Z,98512.47
2023-03-17T20:55:06.471Z,98503.84
2023-03-17T21:00:20.743Z,98503.34
2023-03-17T21:05:26.983Z,98493.34
2023-03-17T21:10:29.672Z,98494.25
2023-03-17T21:15:31.910Z,98491.50
2023-03-17T21:20:35.203Z,98497.63
2023-03-17T21:25:37.534Z,98485.88
2023-03-17T21:30:43.338Z,98487.25
2023-03-17T21:35:45.757Z,98485.56
2023-03-17T21:40:48.106Z,98489.00
2023-03-17T21:45:50.616Z,98487.22
2023-03-17T21:50:52.228Z,98480.94
2023-03-17T21:55:54.010Z,98485.09
2023-03-17T22:00:55.991Z,98477.50
2023-03-17T22:05:58.779Z,98480.03
2023-03-17T22:11:01.423Z,98475.91
2023-03-17T22:16:04.457Z,98472.22
2023-03-17T22:21:08.353Z,98466.75
2023-03-17T22:26:15.980Z,98463.84
2023-03-17T22:31:27.254Z,98461.81
2023-03-17T22:36:30.333Z,98460.84
2023-03-17T22:41:32.017Z,98457.84
2023-03-17T22:46:33.657Z,98448.34
2023-03-17T22:51:36.639Z,98457.78
2023-03-17T23:03:04.373Z,98448.94
2023-03-17T23:08:06.274Z,98456.66
2023-03-17T23:13:08.680Z,98455.47
2023-03-17T23:18:10.993Z,98458.69
2023-03-17T23:23:13.184Z,98451.13
2023-03-17T23:28:15.686Z,98452.56
2023-03-17T23:33:21.223Z,98454.16
2023-03-17T23:38:23.494Z,98444.66
2023-03-17T23:43:26.070Z,98445.31
2023-03-17T23:48:28.332Z,98440.84
2023-03-17T23:53:30.373Z,98437.84
2023-03-17T23:58:33.319Z,98433.34
